Time;durP1;ratioP1;P1;durP2;ratioP2;P2;SDS_P1;SDS_P2;PMS_P1;PMS_P2;Temp;Humidity;BMP_temperature;BMP_pressure;BME280_temperature;BME280_humidity;BME280_pressure;Samples;Min_cycle;Max_cycle;Signal;HPM_P1;HPM_P2
2021/12/11 00:02:19;;;;;;;;;;;3.50;1.00;;;;;;5087829;28;19912;-82
2021/12/11 00:04:46;;;;;;;;;;;3.50;1.00;;;;;;5089732;28;19912;-82
2021/12/11 00:07:14;;;;;;;;;;;3.60;1.00;;;;;;5089028;28;19912;-82
2021/12/11 00:09:51;;;;;;;;;;;3.60;1.00;;;;;;5081750;28;20288;-82
2021/12/11 00:12:27;;;;;;;;;;;3.60;1.00;;;;;;5091841;28;19915;-82
2021/12/11 00:15:00;;;;;;;;;;;3.60;1.00;;;;;;5089768;28;19912;-82
2021/12/11 00:17:28;;;;;;;;;;;3.60;1.00;;;;;;5091561;28;19995;-83
2021/12/11 00:19:53;;;;;;;;;;;3.60;1.00;;;;;;5091427;28;19913;-83
2021/12/11 00:22:20;;;;;;;;;;;3.60;1.00;;;;;;5091710;28;19935;-83
2021/12/11 00:24:46;;;;;;;;;;;3.60;1.00;;;;;;5086853;28;19924;-82
2021/12/11 00:27:14;;;;;;;;;;;3.60;1.00;;;;;;5087055;28;19913;-83
2021/12/11 00:29:40;;;;;;;;;;;3.60;1.00;;;;;;5093283;28;19908;-83
2021/12/11 00:32:09;;;;;;;;;;;3.60;1.00;;;;;;5090052;28;19913;-82
2021/12/11 00:34:35;;;;;;;;;;;3.60;1.00;;;;;;5091224;28;19908;-83
2021/12/11 00:37:03;;;;;;;;;;;3.60;1.00;;;;;;5092302;28;20007;-83
2021/12/11 00:39:29;;;;;;;;;;;3.70;1.00;;;;;;5091362;28;19908;-83
2021/12/11 00:41:56;;;;;;;;;;;3.70;1.00;;;;;;5090873;28;20065;-83
2021/12/11 00:44:23;;;;;;;;;;;3.70;1.00;;;;;;5078673;28;19927;-83
2021/12/11 00:46:48;;;;;;;;;;;3.70;1.00;;;;;;5090691;28;19973;-82
2021/12/11 00:49:16;;;;;;;;;;;3.70;1.00;;;;;;5092035;28;19916;-83
2021/12/11 00:51:48;;;;;;;;;;;3.70;1.00;;;;;;5097333;28;19912;-82
2021/12/11 00:54:13;;;;;;;;;;;3.70;1.00;;;;;;5094547;28;19912;-83
2021/12/11 00:56:40;;;;;;;;;;;3.70;1.00;;;;;;5086582;28;19965;-83
2021/12/11 00:59:10;;;;;;;;;;;3.70;1.00;;;;;;5080821;28;20028;-83
2021/12/11 01:01:38;;;;;;;;;;;3.70;1.00;;;;;;5078621;28;20368;-83
2021/12/11 01:04:03;;;;;;;;;;;3.70;1.00;;;;;;5093087;28;20291;-82
2021/12/11 01:06:33;;;;;;;;;;;3.70;1.00;;;;;;5084643;28;19912;-83
2021/12/11 01:09:07;;;;;;;;;;;3.70;1.00;;;;;;5081827;28;19908;-82
2021/12/11 01:11:38;;;;;;;;;;;3.70;1.00;;;;;;5080692;28;19919;-83
2021/12/11 01:14:14;;;;;;;;;;;3.70;1.00;;;;;;5096387;28;19912;-82
2021/12/11 01:16:41;;;;;;;;;;;3.70;1.00;;;;;;5087357;28;20375;-82
2021/12/11 01:19:07;;;;;;;;;;;3.70;1.00;;;;;;5068207;28;19916;-83
2021/12/11 01:26:33;;;;;;;;;;;3.80;1.00;;;;;;5084278;28;19920;-83
2021/12/11 01:28:58;;;;;;;;;;;3.80;1.00;;;;;;5096123;28;19916;-82
2021/12/11 01:31:24;;;;;;;;;;;3.80;1.00;;;;;;5087010;28;19912;-82
2021/12/11 01:33:50;;;;;;;;;;;3.80;1.00;;;;;;5088242;28;20368;-82
2021/12/11 01:36:16;;;;;;;;;;;3.80;1.00;;;;;;5067381;28;19991;-83
2021/12/11 01:38:42;;;;;;;;;;;3.80;1.00;;;;;;5081180;28;20436;-83
2021/12/11 01:41:12;;;;;;;;;;;3.80;1.00;;;;;;5089187;28;19912;-82
2021/12/11 01:43:40;;;;;;;;;;;3.80;1.00;;;;;;5092805;28;19920;-82
2021/12/11 01:46:06;;;;;;;;;;;3.80;1.00;;;;;;5078106;28;19975;-83
2021/12/11 01:48:42;;;;;;;;;;;3.80;1.00;;;;;;5090396;28;20348;-83
2021/12/11 01:51:10;;;;;;;;;;;3.80;1.00;;;;;;5088321;28;19955;-83
2021/12/11 01:53:41;;;;;;;;;;;3.80;1.00;;;;;;5073990;28;21500;-83
2021/12/11 01:56:09;;;;;;;;;;;3.80;1.00;;;;;;5081835;28;19970;-82
2021/12/11 01:58:37;;;;;;;;;;;3.90;1.00;;;;;;5083732;28;19915;-83
2021/12/11 02:01:12;;;;;;;;;;;3.90;1.00;;;;;;5084581;28;19916;-83
2021/12/11 02:03:38;;;;;;;;;;;3.90;1.00;;;;;;5081523;28;19923;-83
2021/12/11 02:06:03;;;;;;;;;;;3.90;1.00;;;;;;5071016;28;19912;-83
2021/12/11 02:08:30;;;;;;;;;;;3.90;1.00;;;;;;5072068;28;20406;-82
2021/12/11 02:10:58;;;;;;;;;;;3.90;1.00;;;;;;5087808;28;19912;-82
2021/12/11 02:13:37;;;;;;;;;;;3.90;1.00;;;;;;5069060;28;19913;-83
2021/12/11 02:16:04;;;;;;;;;;;3.90;1.00;;;;;;5081921;28;19912;-83
2021/12/11 02:18:36;;;;;;;;;;;3.90;1.00;;;;;;5078978;28;19921;-83
2021/12/11 02:21:23;;;;;;;;;;;3.90;1.00;;;;;;5095544;28;19908;-82
2021/12/11 02:23:56;;;;;;;;;;;3.90;1.00;;;;;;5081037;28;19947;-83
2021/12/11 02:26:21;;;;;;;;;;;3.80;1.00;;;;;;5062655;28;19916;-82
2021/12/11 02:28:49;;;;;;;;;;;3.80;1.00;;;;;;5067508;28;19958;-82
2021/12/11 02:31:15;;;;;;;;;;;3.80;1.00;;;;;;5086262;28;19916;-83
2021/12/11 02:33:53;;;;;;;;;;;3.80;1.00;;;;;;5078364;28;20296;-83
2021/12/11 02:36:22;;;;;;;;;;;3.80;1.00;;;;;;5062222;28;19999;-83
2021/12/11 02:38:58;;;;;;;;;;;3.80;1.00;;;;;;5086245;28;20003;-83
2021/12/11 02:41:48;;;;;;;;;;;3.80;1.00;;;;;;5065761;28;19975;-83
2021/12/11 02:44:23;;;;;;;;;;;3.80;1.00;;;;;;5084019;28;20338;-83
2021/12/11 02:47:09;;;;;;;;;;;3.80;1.00;;;;;;5094236;28;19916;-83
2021/12/11 02:49:38;;;;;;;;;;;3.90;1.00;;;;;;5060099;28;19965;-82
2021/12/11 02:52:04;;;;;;;;;;;3.90;1.00;;;;;;5095432;28;19919;-83
2021/12/11 02:54:36;;;;;;;;;;;3.90;1.00;;;;;;5096897;28;20098;-83
2021/12/11 02:57:04;;;;;;;;;;;3.90;1.00;;;;;;5094353;28;19920;-83
2021/12/11 02:59:32;;;;;;;;;;;3.90;1.00;;;;;;5091581;28;20030;-83
2021/12/11 03:02:05;;;;;;;;;;;3.80;1.00;;;;;;5079043;28;20451;-83
2021/12/11 03:04:36;;;;;;;;;;;3.80;1.00;;;;;;5096256;28;19916;-83
2021/12/11 03:07:04;;;;;;;;;;;3.90;1.00;;;;;;5093219;28;19920;-83
2021/12/11 03:09:31;;;;;;;;;;;3.80;1.00;;;;;;5096738;28;20010;-83
2021/12/11 03:11:58;;;;;;;;;;;3.80;1.00;;;;;;5093222;28;19912;-83
2021/12/11 03:14:25;;;;;;;;;;;3.80;1.00;;;;;;5103838;28;19998;-83
2021/12/11 03:16:51;;;;;;;;;;;3.80;1.00;;;;;;5089273;28;19916;-83
2021/12/11 03:19:19;;;;;;;;;;;3.80;1.00;;;;;;5093062;28;20003;-82
2021/12/11 03:21:45;;;;;;;;;;;3.80;1.00;;;;;;5086654;28;19996;-82
2021/12/11 03:24:11;;;;;;;;;;;3.80;1.00;;;;;;5091500;28;19924;-82
2021/12/11 03:26:38;;;;;;;;;;;3.80;1.00;;;;;;5093623;28;19934;-82
2021/12/11 03:29:04;;;;;;;;;;;3.80;1.00;;;;;;5096798;28;20252;-82
2021/12/11 03:31:30;;;;;;;;;;;3.80;1.00;;;;;;5094507;28;19916;-82
2021/12/11 03:33:56;;;;;;;;;;;3.90;1.00;;;;;;5096227;28;19915;-82
2021/12/11 03:36:24;;;;;;;;;;;3.90;1.00;;;;;;5082362;28;19912;-82
2021/12/11 03:38:52;;;;;;;;;;;3.90;1.00;;;;;;5091125;28;20387;-82
2021/12/11 03:41:17;;;;;;;;;;;3.90;1.00;;;;;;5089665;28;19961;-82
2021/12/11 03:43:43;;;;;;;;;;;3.90;1.00;;;;;;5096262;28;19916;-82
2021/12/11 03:46:09;;;;;;;;;;;3.90;1.00;;;;;;5091077;28;20342;-83
2021/12/11 03:48:44;;;;;;;;;;;4.00;1.00;;;;;;5096860;28;19908;-82
2021/12/11 03:51:11;;;;;;;;;;;3.90;1.00;;;;;;5088014;28;19912;-82
2021/12/11 03:53:37;;;;;;;;;;;4.00;1.00;;;;;;5085945;28;19973;-82
2021/12/11 03:56:05;;;;;;;;;;;4.00;1.00;;;;;;5116015;28;19908;-82
2021/12/11 03:58:31;;;;;;;;;;;4.00;1.00;;;;;;5075705;28;19966;-82
2021/12/11 04:00:56;;;;;;;;;;;4.00;1.00;;;;;;5078257;28;19920;-82
2021/12/11 04:03:24;;;;;;;;;;;4.00;1.00;;;;;;5089714;28;19916;-82
2021/12/11 04:05:50;;;;;;;;;;;4.00;1.00;;;;;;5095632;28;20007;-82
2021/12/11 04:08:20;;;;;;;;;;;4.00;1.00;;;;;;5087023;28;19917;-82
2021/12/11 04:10:46;;;;;;;;;;;4.00;1.00;;;;;;5096457;28;19950;-82
2021/12/11 04:13:14;;;;;;;;;;;4.00;1.00;;;;;;5095688;28;19912;-82
2021/12/11 04:15:39;;;;;;;;;;;4.00;1.00;;;;;;5097424;28;19915;-82
2021/12/11 04:18:05;;;;;;;;;;;4.00;1.00;;;;;;5093277;28;19912;-82
2021/12/11 04:20:31;;;;;;;;;;;4.00;1.00;;;;;;5096364;28;19927;-82
2021/12/11 04:22:57;;;;;;;;;;;4.00;1.00;;;;;;5080549;28;19917;-82
2021/12/11 04:25:25;;;;;;;;;;;4.00;1.00;;;;;;5093585;28;19989;-82
2021/12/11 04:27:51;;;;;;;;;;;4.00;1.00;;;;;;5095899;28;19999;-82
2021/12/11 04:30:19;;;;;;;;;;;4.00;1.00;;;;;;5095053;28;19920;-82
2021/12/11 04:32:44;;;;;;;;;;;4.00;1.00;;;;;;5098969;28;19916;-83
2021/12/11 04:35:12;;;;;;;;;;;4.00;1.00;;;;;;5099664;28;20395;-82
2021/12/11 04:37:38;;;;;;;;;;;4.10;1.00;;;;;;5097700;28;19912;-82
2021/12/11 04:40:25;;;;;;;;;;;4.00;1.00;;;;;;5088196;28;19920;-82
2021/12/11 04:42:58;;;;;;;;;;;4.00;1.00;;;;;;5094905;28;20002;-83
2021/12/11 04:45:26;;;;;;;;;;;4.00;1.00;;;;;;5093182;28;20285;-82
2021/12/11 04:47:58;;;;;;;;;;;4.00;1.00;;;;;;5098023;28;19912;-82
2021/12/11 04:50:36;;;;;;;;;;;4.00;1.00;;;;;;5099127;28;19912;-82
2021/12/11 04:53:06;;;;;;;;;;;3.90;1.00;;;;;;5097794;28;19970;-82
2021/12/11 04:56:16;;;;;;;;;;;3.90;1.00;;;;;;5095120;28;19934;-82
2021/12/11 05:01:25;;;;;;;;;;;3.90;1.00;;;;;;5098501;28;19912;-82
2021/12/11 05:07:04;;;;;;;;;;;4.00;1.00;;;;;;5039210;28;20451;-82
2021/12/11 05:12:12;;;;;;;;;;;4.00;1.00;;;;;;5095183;28;19953;-82
2021/12/11 05:14:38;;;;;;;;;;;4.00;1.00;;;;;;5091776;28;19966;-82
2021/12/11 05:17:04;;;;;;;;;;;4.00;1.00;;;;;;5092125;28;19912;-82
2021/12/11 05:19:30;;;;;;;;;;;4.00;1.00;;;;;;5097061;28;19974;-82
2021/12/11 05:21:56;;;;;;;;;;;4.00;1.00;;;;;;5096918;28;20295;-82
2021/12/11 05:24:21;;;;;;;;;;;4.00;1.00;;;;;;5094620;28;20399;-82
2021/12/11 05:26:47;;;;;;;;;;;4.00;1.00;;;;;;5078384;28;19916;-82
2021/12/11 05:29:12;;;;;;;;;;;4.00;1.00;;;;;;5079435;28;19915;-82
2021/12/11 05:31:38;;;;;;;;;;;4.10;1.00;;;;;;5090511;28;19987;-82
2021/12/11 05:34:04;;;;;;;;;;;4.10;1.00;;;;;;5096349;28;19908;-82
2021/12/11 05:36:32;;;;;;;;;;;4.10;1.00;;;;;;5097094;28;19965;-82
2021/12/11 05:38:58;;;;;;;;;;;4.10;1.00;;;;;;5078401;28;19916;-82
2021/12/11 05:41:24;;;;;;;;;;;4.10;1.00;;;;;;5091868;28;19908;-83
2021/12/11 05:43:50;;;;;;;;;;;4.10;1.00;;;;;;5077988;28;19923;-82
2021/12/11 05:46:16;;;;;;;;;;;4.10;1.00;;;;;;5077901;28;19951;-82
2021/12/11 05:48:44;;;;;;;;;;;4.10;1.00;;;;;;5084673;28;20280;-83
2021/12/11 05:51:10;;;;;;;;;;;4.10;1.00;;;;;;5097134;28;19908;-83
2021/12/11 05:53:36;;;;;;;;;;;4.20;1.00;;;;;;5096842;28;19919;-82
2021/12/11 05:56:06;;;;;;;;;;;4.10;1.00;;;;;;5097180;28;20368;-83
2021/12/11 05:58:56;;;;;;;;;;;4.10;1.00;;;;;;5082838;28;19919;-82
2021/12/11 06:01:24;;;;;;;;;;;4.20;1.00;;;;;;5078261;28;19943;-83
2021/12/11 06:03:49;;;;;;;;;;;4.20;1.00;;;;;;5089871;28;19917;-82
2021/12/11 06:06:16;;;;;;;;;;;4.20;1.00;;;;;;5099489;28;19953;-83
2021/12/11 06:08:41;;;;;;;;;;;4.20;1.00;;;;;;5099139;28;19936;-82
2021/12/11 06:11:08;;;;;;;;;;;4.10;1.00;;;;;;5095700;28;19913;-83
2021/12/11 06:13:33;;;;;;;;;;;4.10;1.00;;;;;;5090967;28;19912;-82
2021/12/11 06:16:01;;;;;;;;;;;4.10;1.00;;;;;;5096347;28;19912;-82
2021/12/11 06:18:26;;;;;;;;;;;4.10;1.00;;;;;;5087752;28;19923;-83
2021/12/11 06:20:52;;;;;;;;;;;4.10;1.00;;;;;;5084380;28;19912;-82
2021/12/11 06:23:18;;;;;;;;;;;4.10;1.00;;;;;;5088825;28;19988;-83
2021/12/11 06:25:44;;;;;;;;;;;4.10;1.00;;;;;;5091238;28;19912;-82
2021/12/11 06:28:09;;;;;;;;;;;4.10;1.00;;;;;;5094410;28;20003;-82
2021/12/11 06:30:36;;;;;;;;;;;4.10;1.00;;;;;;5089582;28;19959;-82
2021/12/11 06:33:02;;;;;;;;;;;4.10;1.00;;;;;;5085406;28;19913;-82
2021/12/11 06:35:37;;;;;;;;;;;4.10;1.00;;;;;;5087761;28;20011;-82
2021/12/11 06:38:03;;;;;;;;;;;4.10;1.00;;;;;;5083734;28;19916;-82
2021/12/11 06:40:29;;;;;;;;;;;4.10;1.00;;;;;;5089652;28;19939;-82
2021/12/11 06:42:54;;;;;;;;;;;4.10;1.00;;;;;;5094849;28;19916;-82
2021/12/11 06:45:21;;;;;;;;;;;4.10;1.00;;;;;;5090281;28;19916;-82
2021/12/11 06:47:46;;;;;;;;;;;4.20;1.00;;;;;;5092748;28;19912;-82
2021/12/11 06:50:12;;;;;;;;;;;4.20;1.00;;;;;;5083107;28;19981;-82
2021/12/11 06:52:37;;;;;;;;;;;4.20;1.00;;;;;;5086439;28;19916;-83
2021/12/11 06:55:04;;;;;;;;;;;4.20;1.00;;;;;;5077788;28;19923;-82
2021/12/11 06:57:29;;;;;;;;;;;4.20;1.00;;;;;;5087114;28;19938;-83
2021/12/11 06:59:55;;;;;;;;;;;4.30;1.00;;;;;;5091397;28;19959;-83
2021/12/11 07:02:21;;;;;;;;;;;4.40;1.00;;;;;;5089070;28;19977;-83
2021/12/11 07:04:48;;;;;;;;;;;4.50;1.00;;;;;;5093077;28;20382;-83
2021/12/11 07:07:20;;;;;;;;;;;4.60;1.00;;;;;;5096849;28;19938;-83
2021/12/11 07:09:46;;;;;;;;;;;4.60;1.00;;;;;;5092138;28;19928;-83
2021/12/11 07:12:12;;;;;;;;;;;4.60;1.00;;;;;;5098367;28;20424;-83
2021/12/11 07:14:37;;;;;;;;;;;4.70;1.00;;;;;;5086297;28;19912;-83
2021/12/11 07:17:03;;;;;;;;;;;4.70;1.00;;;;;;5097895;28;19919;-83
2021/12/11 07:19:29;;;;;;;;;;;4.70;1.00;;;;;;5096113;28;20549;-83
2021/12/11 07:21:55;;;;;;;;;;;4.70;1.00;;;;;;5098662;28;19912;-83
2021/12/11 07:24:32;;;;;;;;;;;4.70;1.00;;;;;;5095977;28;19924;-83
2021/12/11 07:26:59;;;;;;;;;;;4.80;1.00;;;;;;5095861;28;20282;-83
2021/12/11 07:29:25;;;;;;;;;;;4.70;1.00;;;;;;5094001;28;19947;-83
2021/12/11 07:31:51;;;;;;;;;;;4.80;1.00;;;;;;5089200;28;19962;-83
2021/12/11 07:34:16;;;;;;;;;;;4.70;1.00;;;;;;5084560;28;20582;-83
2021/12/11 07:36:42;;;;;;;;;;;4.70;1.00;;;;;;5092973;28;20011;-83
2021/12/11 07:39:11;;;;;;;;;;;4.80;1.00;;;;;;5092060;28;19923;-83
2021/12/11 07:41:36;;;;;;;;;;;4.80;1.00;;;;;;5077784;28;19911;-83
2021/12/11 07:44:02;;;;;;;;;;;4.80;1.00;;;;;;5089107;28;19916;-83
2021/12/11 07:46:29;;;;;;;;;;;4.80;1.00;;;;;;5085777;28;19920;-83
2021/12/11 07:48:57;;;;;;;;;;;4.80;1.00;;;;;;5076128;28;19955;-83
2021/12/11 07:51:23;;;;;;;;;;;4.80;1.00;;;;;;5082310;28;19912;-82
2021/12/11 07:53:49;;;;;;;;;;;4.80;1.00;;;;;;5093135;28;19919;-83
2021/12/11 07:56:17;;;;;;;;;;;4.80;1.00;;;;;;5077336;28;20269;-83
2021/12/11 07:58:43;;;;;;;;;;;4.80;1.00;;;;;;5088847;28;19920;-83
2021/12/11 08:01:08;;;;;;;;;;;4.80;1.00;;;;;;5078731;28;19912;-83
2021/12/11 08:03:34;;;;;;;;;;;4.80;1.00;;;;;;5079496;28;19920;-83
2021/12/11 08:06:00;;;;;;;;;;;4.90;1.00;;;;;;5080580;28;20453;-83
2021/12/11 08:08:26;;;;;;;;;;;4.90;1.00;;;;;;5084391;28;20007;-83
2021/12/11 08:10:53;;;;;;;;;;;4.90;1.00;;;;;;5088680;28;19912;-83
2021/12/11 08:13:19;;;;;;;;;;;4.90;1.00;;;;;;5085941;28;19971;-83
2021/12/11 08:15:44;;;;;;;;;;;4.90;1.00;;;;;;5087896;28;19955;-83
2021/12/11 08:18:11;;;;;;;;;;;5.00;1.00;;;;;;5090192;28;19912;-83
2021/12/11 08:20:37;;;;;;;;;;;5.00;1.00;;;;;;5102135;28;19934;-83
2021/12/11 08:23:03;;;;;;;;;;;5.00;1.00;;;;;;5094662;28;20536;-83
2021/12/11 08:25:30;;;;;;;;;;;5.00;1.00;;;;;;5091771;28;19912;-83
2021/12/11 08:27:55;;;;;;;;;;;5.00;1.00;;;;;;5105999;28;19912;-84
2021/12/11 08:30:22;;;;;;;;;;;5.00;1.00;;;;;;5102673;28;19919;-84
2021/12/11 08:32:48;;;;;;;;;;;5.00;1.00;;;;;;5091355;28;19919;-84
2021/12/11 08:35:13;;;;;;;;;;;5.00;1.00;;;;;;5096893;28;19912;-84
2021/12/11 08:37:40;;;;;;;;;;;5.10;1.00;;;;;;5093461;28;19958;-84
2021/12/11 08:40:09;;;;;;;;;;;5.10;1.00;;;;;;5093610;28;19999;-84
2021/12/11 08:42:34;;;;;;;;;;;5.10;1.00;;;;;;5086977;28;19963;-83
2021/12/11 08:45:06;;;;;;;;;;;5.20;1.00;;;;;;5094782;28;19955;-84
2021/12/11 08:47:33;;;;;;;;;;;5.20;1.00;;;;;;5097498;28;19961;-84
2021/12/11 08:49:59;;;;;;;;;;;5.30;1.00;;;;;;5090552;28;19919;-84
2021/12/11 08:52:26;;;;;;;;;;;5.40;1.00;;;;;;5089733;28;19912;-84
2021/12/11 08:54:52;;;;;;;;;;;5.50;1.00;;;;;;5095739;28;20473;-84
2021/12/11 08:57:20;;;;;;;;;;;5.70;1.00;;;;;;5089481;28;19912;-84
2021/12/11 08:59:48;;;;;;;;;;;5.80;1.00;;;;;;5086057;28;20011;-84
2021/12/11 09:02:16;;;;;;;;;;;5.90;1.00;;;;;;5094127;28;19916;-84
2021/12/11 09:04:44;;;;;;;;;;;6.00;1.00;;;;;;5084404;28;19917;-83
2021/12/11 09:07:11;;;;;;;;;;;6.00;99.90;;;;;;5089593;28;20205;-83
2021/12/11 09:09:40;;;;;;;;;;;5.90;99.90;;;;;;5095347;28;19912;-83
2021/12/11 09:12:06;;;;;;;;;;;5.90;1.00;;;;;;5090309;28;19916;-83
2021/12/11 09:14:31;;;;;;;;;;;5.80;1.00;;;;;;5087460;28;19919;-83
2021/12/11 09:17:00;;;;;;;;;;;5.70;1.00;;;;;;5091560;28;19943;-85
2021/12/11 09:19:34;;;;;;;;;;;5.70;1.00;;;;;;5089472;28;20382;-83
2021/12/11 09:22:01;;;;;;;;;;;5.70;1.00;;;;;;5091936;28;19919;-83
2021/12/11 09:24:34;;;;;;;;;;;5.60;1.00;;;;;;5096341;28;19920;-83
2021/12/11 09:27:05;;;;;;;;;;;5.60;1.00;;;;;;5096559;28;20401;-83
2021/12/11 09:29:51;;;;;;;;;;;5.60;1.00;;;;;;5093673;28;19955;-83
2021/12/11 09:32:16;;;;;;;;;;;5.60;1.00;;;;;;5077312;28;19931;-83
2021/12/11 09:34:48;;;;;;;;;;;5.70;1.00;;;;;;5098557;28;20522;-83
2021/12/11 09:37:13;;;;;;;;;;;5.80;1.00;;;;;;5085579;28;19973;-85
2021/12/11 09:39:45;;;;;;;;;;;5.80;1.00;;;;;;5094652;28;19916;-83
2021/12/11 09:42:10;;;;;;;;;;;6.10;1.00;;;;;;5090577;28;19908;-82
2021/12/11 09:44:48;;;;;;;;;;;6.40;1.00;;;;;;5088057;28;19916;-83
2021/12/11 09:47:17;;;;;;;;;;;6.40;1.00;;;;;;5086910;28;19947;-83
2021/12/11 09:49:45;;;;;;;;;;;6.50;1.00;;;;;;5094272;28;19920;-83
2021/12/11 09:52:19;;;;;;;;;;;6.50;1.00;;;;;;5094804;28;19908;-83
2021/12/11 09:54:47;;;;;;;;;;;6.60;1.00;;;;;;5093785;28;19916;-83
2021/12/11 09:57:14;;;;;;;;;;;6.80;1.00;;;;;;5103055;28;19920;-83
2021/12/11 09:59:40;;;;;;;;;;;6.80;1.00;;;;;;5086754;28;20050;-84
2021/12/11 10:02:08;;;;;;;;;;;6.70;1.00;;;;;;5089725;28;19919;-84
2021/12/11 10:04:39;;;;;;;;;;;6.80;1.00;;;;;;5085684;28;20319;-84
2021/12/11 10:09:47;;;;;;;;;;;6.90;1.00;;;;;;5079751;28;20255;-84
2021/12/11 10:12:15;;;;;;;;;;;6.90;1.00;;;;;;5093068;28;19967;-83
2021/12/11 10:14:46;;;;;;;;;;;7.10;1.00;;;;;;5094870;28;20372;-84
2021/12/11 10:17:14;;;;;;;;;;;7.20;1.00;;;;;;5082132;28;20005;-84
2021/12/11 10:19:41;;;;;;;;;;;7.40;1.00;;;;;;5088182;28;19916;-84
2021/12/11 10:22:15;;;;;;;;;;;7.50;99.90;;;;;;5095863;28;19908;-84
2021/12/11 10:24:41;;;;;;;;;;;7.50;99.90;;;;;;5101884;28;19916;-84
2021/12/11 10:27:09;;;;;;;;;;;7.80;99.90;;;;;;5081275;28;19912;-84
2021/12/11 10:29:34;;;;;;;;;;;7.70;99.90;;;;;;5091700;28;19920;-83
2021/12/11 10:32:06;;;;;;;;;;;7.70;99.90;;;;;;5093232;28;20018;-81
2021/12/11 10:34:32;;;;;;;;;;;7.50;99.90;;;;;;5089389;28;19939;-83
2021/12/11 10:37:00;;;;;;;;;;;7.90;99.90;;;;;;5097476;28;19937;-84
2021/12/11 10:39:26;;;;;;;;;;;8.00;99.90;;;;;;5091828;28;19934;-83
2021/12/11 10:41:52;;;;;;;;;;;8.10;99.90;;;;;;5089221;28;19912;-83
2021/12/11 10:44:19;;;;;;;;;;;8.00;69.80;;;;;;5088144;28;19915;-83
2021/12/11 10:46:48;;;;;;;;;;;8.00;63.00;;;;;;5086393;28;19935;-83
2021/12/11 10:49:15;;;;;;;;;;;7.90;80.30;;;;;;5088956;28;19912;-83
2021/12/11 10:51:44;;;;;;;;;;;7.80;93.70;;;;;;5097593;28;19915;-83
2021/12/11 10:54:11;;;;;;;;;;;7.70;23.60;;;;;;5091356;28;19923;-83
2021/12/11 10:56:37;;;;;;;;;;;7.60;1.00;;;;;;5081868;28;19909;-83
2021/12/11 10:59:05;;;;;;;;;;;7.50;56.60;;;;;;5077656;28;19995;-82
2021/12/11 11:01:37;;;;;;;;;;;7.50;99.90;;;;;;5094244;28;20287;-83
2021/12/11 11:04:04;;;;;;;;;;;7.50;99.90;;;;;;5085968;28;19924;-83
2021/12/11 11:06:30;;;;;;;;;;;7.50;99.90;;;;;;5076659;28;19966;-83
2021/12/11 11:08:56;;;;;;;;;;;7.60;99.90;;;;;;5087927;28;19916;-83
2021/12/11 11:11:23;;;;;;;;;;;7.60;99.90;;;;;;5101656;28;19963;-83
2021/12/11 11:13:49;;;;;;;;;;;7.60;99.90;;;;;;5092527;28;19919;-83
2021/12/11 11:16:16;;;;;;;;;;;7.50;99.90;;;;;;5085429;28;19912;-83
2021/12/11 11:18:41;;;;;;;;;;;7.60;99.90;;;;;;5097004;28;19915;-83
2021/12/11 11:21:12;;;;;;;;;;;7.70;23.30;;;;;;5091635;28;19920;-83
2021/12/11 11:23:38;;;;;;;;;;;7.60;1.00;;;;;;5078827;28;20030;-83
2021/12/11 11:26:05;;;;;;;;;;;7.60;3.10;;;;;;5096389;28;19909;-83
2021/12/11 11:28:33;;;;;;;;;;;7.60;29.50;;;;;;5104733;28;19907;-83
2021/12/11 11:31:00;;;;;;;;;;;7.60;37.30;;;;;;5090143;28;19912;-83
2021/12/11 11:33:27;;;;;;;;;;;7.60;40.00;;;;;;5085837;28;19912;-83
2021/12/11 11:35:52;;;;;;;;;;;7.60;35.20;;;;;;5097373;28;19995;-84
2021/12/11 11:38:23;;;;;;;;;;;7.70;45.60;;;;;;5095211;28;19944;-83
2021/12/11 11:40:54;;;;;;;;;;;7.70;22.30;;;;;;5098442;28;19912;-83
2021/12/11 11:43:19;;;;;;;;;;;7.70;1.00;;;;;;5094792;28;20327;-83
2021/12/11 11:45:46;;;;;;;;;;;7.80;1.00;;;;;;5097745;28;19909;-83
2021/12/11 11:48:12;;;;;;;;;;;7.90;1.00;;;;;;5097467;28;19920;-83
2021/12/11 11:50:40;;;;;;;;;;;7.90;1.00;;;;;;5086271;28;19912;-83
2021/12/11 11:53:06;;;;;;;;;;;8.00;1.00;;;;;;5095772;28;19920;-83
2021/12/11 11:55:34;;;;;;;;;;;8.00;1.00;;;;;;5096174;28;19908;-82
2021/12/11 11:57:59;;;;;;;;;;;8.00;1.00;;;;;;5093089;28;19913;-82
2021/12/11 12:00:27;;;;;;;;;;;8.00;1.00;;;;;;5094869;28;19961;-82
2021/12/11 12:02:52;;;;;;;;;;;8.10;1.00;;;;;;5096485;28;19908;-82
2021/12/11 12:05:19;;;;;;;;;;;8.20;99.90;;;;;;5087055;28;20265;-82
2021/12/11 12:07:46;;;;;;;;;;;8.30;99.90;;;;;;5096864;28;19904;-82
2021/12/11 12:10:15;;;;;;;;;;;8.20;99.90;;;;;;5079141;28;19935;-82
2021/12/11 12:12:41;;;;;;;;;;;8.20;99.90;;;;;;5092457;28;19926;-82
2021/12/11 12:15:08;;;;;;;;;;;8.10;99.90;;;;;;5094596;28;19935;-82
2021/12/11 12:17:35;;;;;;;;;;;8.10;99.90;;;;;;5079772;28;19916;-82
2021/12/11 12:20:03;;;;;;;;;;;8.00;99.90;;;;;;5073667;28;19909;-82
2021/12/11 12:22:29;;;;;;;;;;;8.00;99.90;;;;;;5092428;28;20399;-82
2021/12/11 12:24:56;;;;;;;;;;;7.90;99.90;;;;;;5087549;28;19912;-81
2021/12/11 12:27:23;;;;;;;;;;;7.80;99.90;;;;;;5090377;28;19961;-81
2021/12/11 12:29:49;;;;;;;;;;;7.90;99.90;;;;;;5071838;28;19912;-81
2021/12/11 12:32:17;;;;;;;;;;;7.90;99.90;;;;;;5088454;28;20006;-82
2021/12/11 12:34:43;;;;;;;;;;;8.00;99.90;;;;;;5095526;28;19935;-81
2021/12/11 12:37:09;;;;;;;;;;;8.00;99.90;;;;;;5087411;28;19920;-83
2021/12/11 12:39:38;;;;;;;;;;;8.00;99.90;;;;;;5082091;28;19916;-82
2021/12/11 12:42:21;;;;;;;;;;;8.00;99.90;;;;;;5089637;28;19998;-82
2021/12/11 12:44:50;;;;;;;;;;;7.90;99.90;;;;;;5093233;28;19916;-82
2021/12/11 12:47:18;;;;;;;;;;;7.90;99.90;;;;;;5091123;28;19916;-82
2021/12/11 12:49:45;;;;;;;;;;;7.90;99.90;;;;;;5094329;28;20010;-82
2021/12/11 12:52:15;;;;;;;;;;;8.00;99.90;;;;;;5099965;28;20003;-81
2021/12/11 12:54:41;;;;;;;;;;;8.00;99.90;;;;;;5086556;28;19958;-81
2021/12/11 12:57:14;;;;;;;;;;;7.90;99.90;;;;;;5094107;28;20371;-81
2021/12/11 12:59:50;;;;;;;;;;;8.00;99.90;;;;;;5090345;28;20205;-81
2021/12/11 13:02:17;;;;;;;;;;;7.90;99.90;;;;;;5095143;28;19951;-80
2021/12/11 13:04:53;;;;;;;;;;;7.90;99.90;;;;;;5091062;28;20011;-81
2021/12/11 13:07:18;;;;;;;;;;;8.00;99.90;;;;;;5089864;28;19908;-80
2021/12/11 13:09:47;;;;;;;;;;;8.00;99.90;;;;;;5090452;28;19912;-80
2021/12/11 13:12:13;;;;;;;;;;;7.90;99.90;;;;;;5092050;28;19923;-80
2021/12/11 13:14:40;;;;;;;;;;;7.90;99.90;;;;;;5092456;28;19916;-82
2021/12/11 13:17:14;;;;;;;;;;;7.90;99.90;;;;;;5096324;28;19972;-82
2021/12/11 13:19:42;;;;;;;;;;;7.90;1.00;;;;;;5104690;28;19951;-82
2021/12/11 13:22:12;;;;;;;;;;;7.90;1.00;;;;;;5090310;28;19916;-82
2021/12/11 13:24:41;;;;;;;;;;;7.90;1.00;;;;;;5083067;28;19912;-82
2021/12/11 13:27:08;;;;;;;;;;;8.00;1.00;;;;;;5085081;28;19933;-82
2021/12/11 13:29:37;;;;;;;;;;;8.10;99.90;;;;;;5095196;28;19908;-82
2021/12/11 13:32:02;;;;;;;;;;;8.10;99.90;;;;;;5093264;28;20292;-82
2021/12/11 13:34:31;;;;;;;;;;;8.10;99.90;;;;;;5096928;28;19912;-82
2021/12/11 13:36:57;;;;;;;;;;;8.10;99.90;;;;;;5080103;28;19922;-82
2021/12/11 13:39:23;;;;;;;;;;;8.10;99.90;;;;;;5080136;28;19909;-81
2021/12/11 13:41:50;;;;;;;;;;;8.20;99.90;;;;;;5096622;28;19970;-82
2021/12/11 13:44:18;;;;;;;;;;;8.20;99.90;;;;;;5097913;28;19916;-82
2021/12/11 13:46:44;;;;;;;;;;;8.30;99.90;;;;;;5083867;28;19912;-82
2021/12/11 13:49:09;;;;;;;;;;;8.40;99.90;;;;;;5081905;28;19920;-82
2021/12/11 13:51:37;;;;;;;;;;;8.40;73.30;;;;;;5092450;28;19939;-82
2021/12/11 13:54:04;;;;;;;;;;;8.50;16.40;;;;;;5090364;28;19992;-82
2021/12/11 13:56:31;;;;;;;;;;;8.50;1.00;;;;;;5093317;28;20001;-82
2021/12/11 13:58:57;;;;;;;;;;;8.40;1.00;;;;;;5087574;28;19923;-82
2021/12/11 14:01:25;;;;;;;;;;;8.40;1.00;;;;;;5086884;28;19912;-82
2021/12/11 14:03:51;;;;;;;;;;;8.40;1.00;;;;;;5080269;28;19967;-82
2021/12/11 14:06:18;;;;;;;;;;;8.40;1.00;;;;;;5083034;28;19954;-82
2021/12/11 14:08:44;;;;;;;;;;;8.30;1.00;;;;;;5091106;28;20366;-82
2021/12/11 14:11:12;;;;;;;;;;;8.20;1.00;;;;;;5082402;28;19917;-82
2021/12/11 14:13:38;;;;;;;;;;;8.10;1.00;;;;;;5075946;28;19962;-82
2021/12/11 14:16:05;;;;;;;;;;;8.00;1.00;;;;;;5077180;28;19913;-82
2021/12/11 14:18:30;;;;;;;;;;;7.90;1.00;;;;;;5076788;28;20368;-82
2021/12/11 14:20:56;;;;;;;;;;;7.80;29.60;;;;;;5085230;28;19923;-82
2021/12/11 14:23:26;;;;;;;;;;;7.80;91.80;;;;;;5091373;28;19969;-82
2021/12/11 14:25:52;;;;;;;;;;;7.90;49.50;;;;;;5092398;28;20284;-82
2021/12/11 14:28:19;;;;;;;;;;;7.90;1.00;;;;;;5091202;28;19913;-82
2021/12/11 14:30:46;;;;;;;;;;;7.90;4.30;;;;;;5086614;28;19920;-82
2021/12/11 14:33:11;;;;;;;;;;;7.80;42.40;;;;;;5086126;28;20058;-80
2021/12/11 14:35:37;;;;;;;;;;;7.80;9.60;;;;;;5097401;28;19977;-81
2021/12/11 14:38:06;;;;;;;;;;;7.80;36.80;;;;;;5090245;28;19912;-81
2021/12/11 14:40:34;;;;;;;;;;;7.90;35.30;;;;;;5083804;28;19938;-81
2021/12/11 14:43:00;;;;;;;;;;;7.90;22.00;;;;;;5092001;28;20329;-82
2021/12/11 14:45:27;;;;;;;;;;;7.80;4.20;;;;;;5082982;28;19916;-82
2021/12/11 14:47:53;;;;;;;;;;;7.90;30.90;;;;;;5084841;28;19912;-82
2021/12/11 14:50:22;;;;;;;;;;;7.80;1.00;;;;;;5090520;28;19962;-82
2021/12/11 14:52:47;;;;;;;;;;;7.80;3.60;;;;;;5089516;28;19912;-82
2021/12/11 14:55:16;;;;;;;;;;;7.70;79.30;;;;;;5093552;28;19912;-82
2021/12/11 14:57:41;;;;;;;;;;;7.60;99.90;;;;;;5097807;28;19908;-82
2021/12/11 15:00:10;;;;;;;;;;;7.60;99.90;;;;;;5082288;28;19912;-82
2021/12/11 15:02:37;;;;;;;;;;;7.60;99.90;;;;;;5078257;28;19965;-82